createdAt,value
2019-03-10T00:01:01.690Z,77.94
2019-03-10T00:03:05.790Z,78.02
2019-03-10T00:05:09.641Z,78.01
2019-03-10T00:07:13.366Z,78.11
2019-03-10T00:09:17.143Z,78.14
2019-03-10T00:11:20.861Z,78.19
2019-03-10T00:13:24.711Z,78.20
2019-03-10T00:15:28.651Z,78.23
2019-03-10T00:17:32.522Z,78.24
2019-03-10T00:19:36.862Z,78.28
2019-03-10T00:21:40.586Z,78.28
2019-03-10T00:23:44.440Z,78.32
2019-03-10T00:25:48.282Z,78.42
2019-03-10T00:27:52.096Z,78.46
2019-03-10T00:29:55.862Z,78.49
2019-03-10T00:31:59.716Z,78.48
2019-03-10T00:34:03.435Z,78.41
2019-03-10T00:36:07.213Z,78.43
2019-03-10T00:38:11.117Z,78.64
2019-03-10T00:40:45.375Z,78.74
2019-03-10T00:43:17.194Z,78.80
2019-03-10T00:46:08.287Z,78.89
2019-03-10T00:49:05.401Z,78.92
2019-03-10T00:51:34.469Z,78.91
2019-03-10T00:53:38.176Z,78.88
2019-03-10T00:55:41.956Z,78.84
2019-03-10T00:57:45.881Z,78.91
2019-03-10T00:59:49.659Z,79.00
2019-03-10T01:01:53.580Z,79.08
2019-03-10T01:03:57.304Z,79.17
2019-03-10T01:06:01.078Z,79.31
2019-03-10T01:08:04.917Z,79.32
2019-03-10T01:10:08.906Z,79.39
2019-03-10T01:12:12.888Z,79.38
2019-03-10T01:14:16.613Z,79.32
2019-03-10T01:16:20.937Z,79.32
2019-03-10T01:18:26.287Z,79.44
2019-03-10T01:20:31.080Z,79.59
2019-03-10T01:22:35.279Z,79.69
2019-03-10T01:24:38.954Z,79.63
2019-03-10T01:26:43.150Z,79.72
2019-03-10T01:28:46.912Z,79.81
2019-03-10T01:31:00.698Z,79.85
2019-03-10T01:33:30.464Z,79.88
2019-03-10T01:35:37.358Z,79.98
2019-03-10T01:37:41.193Z,79.96
2019-03-10T01:39:44.908Z,80.08
2019-03-10T01:41:48.755Z,80.10
2019-03-10T01:43:52.477Z,80.16
2019-03-10T01:45:56.213Z,80.22
2019-03-10T01:48:00.029Z,80.29
2019-03-10T01:50:03.938Z,80.41
2019-03-10T01:52:07.851Z,80.55
2019-03-10T01:54:11.673Z,80.62
2019-03-10T01:56:15.375Z,80.75
2019-03-10T01:58:19.086Z,80.83
2019-03-10T02:00:22.959Z,80.96
2019-03-10T02:02:26.828Z,81.05
2019-03-10T02:04:30.537Z,81.07
2019-03-10T02:06:34.276Z,81.13
2019-03-10T02:08:38.105Z,81.21
2019-03-10T02:10:41.865Z,81.28
2019-03-10T02:12:45.698Z,81.32
2019-03-10T02:14:49.411Z,81.32
2019-03-10T02:16:53.116Z,81.34
2019-03-10T02:18:56.967Z,81.26
2019-03-10T02:21:00.660Z,81.21
2019-03-10T02:23:04.497Z,81.13
2019-03-10T02:25:08.464Z,81.04
2019-03-10T02:27:12.180Z,80.91
2019-03-10T02:29:16.011Z,80.87
2019-03-10T02:31:19.729Z,80.78
2019-03-10T02:33:23.476Z,80.68
2019-03-10T02:35:27.174Z,80.71
2019-03-10T02:37:30.896Z,80.70
2019-03-10T02:39:34.602Z,80.66
2019-03-10T02:41:38.311Z,80.65
2019-03-10T02:43:42.031Z,80.63
2019-03-10T02:45:45.806Z,80.69
2019-03-10T02:47:49.599Z,80.72
2019-03-10T02:49:53.320Z,80.77
2019-03-10T02:51:57.068Z,80.79
2019-03-10T02:54:00.885Z,80.82
2019-03-10T02:56:04.681Z,80.79
2019-03-10T02:58:08.456Z,80.83
2019-03-10T03:00:12.486Z,80.89
2019-03-10T03:02:16.202Z,81.00
2019-03-10T03:04:19.942Z,81.08
2019-03-10T03:06:23.846Z,81.07
2019-03-10T03:08:27.799Z,81.12
2019-03-10T03:10:31.562Z,81.24
2019-03-10T03:12:35.351Z,81.28
2019-03-10T03:14:39.293Z,81.33
2019-03-10T03:16:42.997Z,81.35
2019-03-10T03:18:46.743Z,81.32
2019-03-10T03:20:50.462Z,81.32
2019-03-10T03:22:54.229Z,81.31
2019-03-10T03:24:57.900Z,81.37
2019-03-10T03:27:02.706Z,81.43
2019-03-10T03:29:06.499Z,81.51
2019-03-10T03:31:10.221Z,81.58
2019-03-10T03:33:14.012Z,81.64
2019-03-10T03:35:54.530Z,81.72
2019-03-10T03:37:58.348Z,81.77
2019-03-10T03:40:02.084Z,81.82
2019-03-10T03:42:05.768Z,81.85
2019-03-10T03:44:09.576Z,81.86
2019-03-10T03:46:13.281Z,81.86
2019-03-10T03:48:17.095Z,81.88
2019-03-10T03:50:20.809Z,81.90
2019-03-10T03:52:24.498Z,81.89
2019-03-10T03:54:28.294Z,81.90
2019-03-10T03:56:31.996Z,81.90
2019-03-10T03:58:35.797Z,81.95
2019-03-10T04:00:40.176Z,82.01
2019-03-10T04:02:44.023Z,82.05
2019-03-10T04:04:47.820Z,82.10
2019-03-10T04:06:51.527Z,82.12
2019-03-10T04:08:55.329Z,82.02
2019-03-10T04:10:59.055Z,82.05
2019-03-10T04:13:02.762Z,82.09
2019-03-10T04:15:06.646Z,82.16
2019-03-10T04:17:10.345Z,82.21
2019-03-10T04:19:14.223Z,82.24
2019-03-10T04:21:17.923Z,82.32
2019-03-10T04:23:21.631Z,82.30
2019-03-10T04:25:25.423Z,82.21
2019-03-10T04:27:29.121Z,82.08
2019-03-10T04:29:32.842Z,81.86
2019-03-10T04:31:36.553Z,81.68
2019-03-10T04:33:40.265Z,81.51
2019-03-10T04:37:52.819Z,81.27
2019-03-10T04:39:56.592Z,81.18
2019-03-10T04:42:00.317Z,81.19
2019-03-10T04:44:04.145Z,81.13
2019-03-10T04:46:07.852Z,81.13
2019-03-10T04:48:11.586Z,81.13
2019-03-10T04:50:16.508Z,81.06
2019-03-10T04:52:20.295Z,81.13
2019-03-10T04:54:49.352Z,81.02
2019-03-10T04:57:03.315Z,80.92
2019-03-10T04:59:07.011Z,80.82
2019-03-10T05:01:10.859Z,80.75
2019-03-10T05:03:14.645Z,80.73
2019-03-10T05:05:18.489Z,80.71
2019-03-10T05:07:22.194Z,80.73
2019-03-10T05:09:26.117Z,80.74
2019-03-10T05:11:29.818Z,80.74
2019-03-10T05:13:33.520Z,80.77
2019-03-10T05:15:37.254Z,80.76
2019-03-10T05:17:41.054Z,80.93
2019-03-10T05:19:44.796Z,80.97
2019-03-10T05:21:48.501Z,81.02
2019-03-10T05:23:52.493Z,81.04
2019-03-10T05:25:56.347Z,81.08
2019-03-10T05:28:00.061Z,81.10
2019-03-10T05:30:04.028Z,81.16
2019-03-10T05:32:07.729Z,81.17
2019-03-10T05:34:11.440Z,81.18
2019-03-10T05:36:15.320Z,81.22
2019-03-10T05:38:19.161Z,81.22
2019-03-10T05:40:22.913Z,81.24
2019-03-10T05:42:26.624Z,81.28
2019-03-10T05:44:30.412Z,81.33
2019-03-10T05:46:34.171Z,81.76
2019-03-10T05:48:37.946Z,82.26
2019-03-10T05:50:41.933Z,82.59
2019-03-10T05:52:45.633Z,83.21
2019-03-10T05:54:49.549Z,83.65
2019-03-10T05:56:53.248Z,84.13
2019-03-10T05:58:56.953Z,84.42
2019-03-10T06:01:00.785Z,84.51
2019-03-10T06:03:04.580Z,84.72
2019-03-10T06:05:08.468Z,84.84
2019-03-10T06:07:12.194Z,84.80
2019-03-10T06:09:15.901Z,84.87
2019-03-10T06:11:19.745Z,85.13
2019-03-10T06:13:23.473Z,85.30
2019-03-10T06:15:27.333Z,85.43
2019-03-10T06:17:31.044Z,85.63
2019-03-10T06:19:34.760Z,85.78
2019-03-10T06:21:38.488Z,85.94
2019-03-10T06:23:42.179Z,86.09
2019-03-10T06:25:45.918Z,86.17
2019-03-10T06:27:49.617Z,86.28
2019-03-10T06:29:53.325Z,86.66
2019-03-10T06:31:57.060Z,87.06
2019-03-10T06:34:00.767Z,87.62
2019-03-10T06:36:04.689Z,88.03
2019-03-10T06:38:08.396Z,88.29
2019-03-10T06:40:12.411Z,88.50
2019-03-10T06:42:16.126Z,88.64
2019-03-10T06:44:21.094Z,88.76
2019-03-10T06:46:24.959Z,88.91
2019-03-10T06:48:28.666Z,89.04
2019-03-10T06:50:32.392Z,89.15
2019-03-10T06:52:36.171Z,89.24
2019-03-10T06:54:39.879Z,89.34
2019-03-10T06:56:43.665Z,89.49
2019-03-10T06:58:47.371Z,89.58
2019-03-10T07:00:51.156Z,89.71
2019-03-10T07:02:54.852Z,89.82
2019-03-10T07:04:58.560Z,89.96
2019-03-10T07:07:02.354Z,90.07
2019-03-10T07:09:06.226Z,90.16
2019-03-10T07:11:10.033Z,90.28
2019-03-10T07:13:13.733Z,90.35
2019-03-10T07:15:17.536Z,90.43
2019-03-10T07:17:21.322Z,90.48
2019-03-10T07:19:25.023Z,90.56
2019-03-10T07:21:28.742Z,90.61
2019-03-10T07:23:32.451Z,90.68
2019-03-10T07:25:36.151Z,90.74
2019-03-10T07:28:02.007Z,90.78
2019-03-10T07:30:25.105Z,90.85
2019-03-10T07:32:40.310Z,90.92
2019-03-10T07:34:56.215Z,90.95
2019-03-10T07:37:31.244Z,91.00
2019-03-10T07:40:08.910Z,91.05
2019-03-10T07:42:30.964Z,91.12
2019-03-10T07:44:56.456Z,91.18
2019-03-10T07:47:21.994Z,91.28
2019-03-10T07:49:30.507Z,91.37
2019-03-10T07:51:40.559Z,91.43
2019-03-10T07:53:54.309Z,91.47
2019-03-10T07:56:04.551Z,91.50
2019-03-10T07:58:27.303Z,91.54
2019-03-10T08:00:37.759Z,91.59
2019-03-10T08:03:19.083Z,91.62
2019-03-10T08:05:40.133Z,91.65
2019-03-10T08:08:01.470Z,91.70
2019-03-10T08:10:15.100Z,91.73
2019-03-10T08:12:27.435Z,91.77
2019-03-10T08:14:38.904Z,91.82
2019-03-10T08:16:58.865Z,91.92
2019-03-10T08:19:11.965Z,92.02
2019-03-10T08:21:49.648Z,92.10
2019-03-10T08:24:08.312Z,92.18
2019-03-10T08:26:17.662Z,92.26
2019-03-10T08:28:30.048Z,92.28
2019-03-10T08:31:02.420Z,92.30
2019-03-10T08:33:27.932Z,92.35
2019-03-10T08:35:50.779Z,92.37
2019-03-10T08:38:06.665Z,92.40
2019-03-10T08:40:32.935Z,92.44
2019-03-10T08:42:51.184Z,92.49
2019-03-10T08:45:23.117Z,92.54
2019-03-10T08:52:59.770Z,92.64
2019-03-10T08:55:25.514Z,92.67
2019-03-10T08:57:50.778Z,92.68
2019-03-10T09:00:22.399Z,92.71
2019-03-10T09:02:43.690Z,92.73
2019-03-10T09:05:18.579Z,92.75
2019-03-10T09:07:40.440Z,92.78
2019-03-10T09:10:05.455Z,92.82
2019-03-10T09:12:15.026Z,92.84
2019-03-10T09:14:45.749Z,92.88
2019-03-10T09:17:01.980Z,92.89
2019-03-10T09:19:33.715Z,92.90
2019-03-10T09:22:02.959Z,92.92
2019-03-10T09:24:37.893Z,92.95
2019-03-10T09:26:53.488Z,92.97
2019-03-10T09:29:19.447Z,93.00
2019-03-10T09:31:44.941Z,92.97
2019-03-10T09:34:19.837Z,92.98
2019-03-10T09:36:40.973Z,93.00
2019-03-10T09:38:53.822Z,93.04
2019-03-10T09:41:15.057Z,93.08
2019-03-10T09:43:46.858Z,93.12
2019-03-10T09:45:59.572Z,93.11
2019-03-10T09:48:15.862Z,93.15
2019-03-10T09:50:30.495Z,93.16
2019-03-10T09:52:47.416Z,93.16
2019-03-10T09:55:04.748Z,93.16
2019-03-10T09:57:24.439Z,93.20
2019-03-10T09:59:53.322Z,93.18
2019-03-10T10:02:13.065Z,93.22
2019-03-10T10:04:38.912Z,93.21
2019-03-10T10:06:48.568Z,93.25
2019-03-10T10:09:11.416Z,93.23
2019-03-10T10:11:32.031Z,93.25
2019-03-10T10:13:41.126Z,93.24
2019-03-10T10:16:06.999Z,93.24
2019-03-10T10:18:29.866Z,93.26
2019-03-10T10:20:41.115Z,93.24
2019-03-10T10:22:53.773Z,93.23
2019-03-10T10:25:09.070Z,93.22
2019-03-10T10:27:23.379Z,93.21
2019-03-10T10:29:34.154Z,93.15
2019-03-10T10:31:56.894Z,93.00
2019-03-10T10:34:19.773Z,92.81
2019-03-10T10:36:41.091Z,92.43
2019-03-10T10:38:52.917Z,91.94
2019-03-10T10:41:15.875Z,91.35
2019-03-10T10:43:34.153Z,91.15
2019-03-10T10:45:55.514Z,90.89
2019-03-10T10:48:15.488Z,90.30
2019-03-10T10:50:26.126Z,90.75
2019-03-10T10:52:40.765Z,89.82
2019-03-10T10:55:08.854Z,89.92
2019-03-10T10:57:46.497Z,89.36
2019-03-10T10:59:55.356Z,89.71
2019-03-10T11:02:04.742Z,88.84
2019-03-10T11:04:45.753Z,88.93
2019-03-10T11:07:09.372Z,88.38
2019-03-10T11:09:19.095Z,87.69
2019-03-10T11:11:34.991Z,86.81
2019-03-10T11:14:00.708Z,85.64
2019-03-10T11:16:10.072Z,85.78
2019-03-10T11:18:31.130Z,83.29
2019-03-10T11:20:47.340Z,81.62
2019-03-10T11:23:10.079Z,83.37
2019-03-10T11:25:21.772Z,83.16
2019-03-10T11:27:31.020Z,81.03
2019-03-10T11:29:41.178Z,81.35
2019-03-10T11:32:01.193Z,81.07
2019-03-10T11:34:13.090Z,82.33
2019-03-10T11:36:22.661Z,81.36
2019-03-10T11:38:32.856Z,78.45
2019-03-10T11:41:04.903Z,77.14
2019-03-10T11:43:36.748Z,79.62
2019-03-10T11:45:47.892Z,77.44
2019-03-10T11:47:58.833Z,79.43
2019-03-10T11:50:19.489Z,77.00
2019-03-10T11:52:37.406Z,76.42
2019-03-10T11:54:58.633Z,74.47
2019-03-10T11:57:21.368Z,75.35
2019-03-10T11:59:29.146Z,76.10
2019-03-10T12:01:46.969Z,74.64
2019-03-10T12:04:19.006Z,73.60
2019-03-10T12:06:35.071Z,75.15
2019-03-10T12:08:58.405Z,77.35
2019-03-10T12:11:02.205Z,79.54
2019-03-10T12:13:06.026Z,80.69
2019-03-10T12:15:10.373Z,80.59
2019-03-10T12:17:14.083Z,78.89
2019-03-10T12:19:17.899Z,78.40
2019-03-10T12:21:21.720Z,80.23
2019-03-10T12:23:25.614Z,81.38
2019-03-10T12:25:29.347Z,83.24
2019-03-10T12:27:33.099Z,84.76
2019-03-10T12:29:36.836Z,86.99
2019-03-10T12:31:40.548Z,87.68
2019-03-10T12:33:44.261Z,88.57
2019-03-10T12:35:48.212Z,89.40
2019-03-10T12:37:51.915Z,89.79
2019-03-10T12:39:55.670Z,90.54
2019-03-10T12:41:59.391Z,89.59
2019-03-10T12:44:03.170Z,89.19
2019-03-10T12:46:06.902Z,88.63
2019-03-10T12:48:10.621Z,88.56
2019-03-10T12:50:14.507Z,87.74
2019-03-10T12:52:18.242Z,88.58
2019-03-10T12:54:21.939Z,88.63
2019-03-10T12:56:25.690Z,88.31
2019-03-10T12:58:29.405Z,87.54
2019-03-10T13:00:33.266Z,85.78
2019-03-10T13:02:37.074Z,85.32
2019-03-10T13:04:40.782Z,86.29
2019-03-10T13:06:44.661Z,88.09
2019-03-10T13:08:48.389Z,89.15
2019-03-10T13:10:52.201Z,89.94
2019-03-10T13:12:55.911Z,90.41
2019-03-10T13:15:00.196Z,90.40
2019-03-10T13:17:04.111Z,90.26
2019-03-10T13:19:07.897Z,90.13
2019-03-10T13:21:11.675Z,89.21
2019-03-10T13:23:15.468Z,89.41
2019-03-10T13:25:19.307Z,88.57
2019-03-10T13:27:23.097Z,88.33
2019-03-10T13:29:26.897Z,88.09
2019-03-10T13:31:30.713Z,88.02
2019-03-10T13:33:34.505Z,87.65
2019-03-10T13:35:38.420Z,88.52
2019-03-10T13:37:42.203Z,89.38
2019-03-10T13:39:46.036Z,89.18
2019-03-10T13:41:49.944Z,87.82
2019-03-10T13:43:53.857Z,87.62
2019-03-10T13:45:57.773Z,85.73
2019-03-10T13:48:01.573Z,85.43
2019-03-10T13:50:05.956Z,85.79
2019-03-10T13:52:09.725Z,85.79
2019-03-10T13:54:13.426Z,83.93
2019-03-10T13:56:17.342Z,82.98
2019-03-10T13:58:21.168Z,82.73
2019-03-10T14:00:25.366Z,83.46
2019-03-10T14:02:29.230Z,82.52
2019-03-10T14:04:33.107Z,80.27
2019-03-10T14:06:37.003Z,81.03
2019-03-10T14:08:40.717Z,78.64
2019-03-10T14:10:44.523Z,79.79
2019-03-10T14:12:48.233Z,78.03
2019-03-10T14:14:52.031Z,78.29
2019-03-10T14:16:55.862Z,78.90
2019-03-10T14:18:59.570Z,79.23
2019-03-10T14:21:03.491Z,78.23
2019-03-10T14:23:07.340Z,77.36
2019-03-10T14:25:11.211Z,77.25
2019-03-10T14:27:15.026Z,74.78
2019-03-10T14:29:18.796Z,75.78
2019-03-10T14:31:22.591Z,74.63
2019-03-10T14:33:26.405Z,74.63
2019-03-10T14:35:30.248Z,75.01
2019-03-10T14:37:34.088Z,76.51
2019-03-10T14:39:38.005Z,75.42
2019-03-10T14:41:41.852Z,74.29
2019-03-10T14:43:45.568Z,76.34
2019-03-10T14:45:49.344Z,74.57
2019-03-10T14:47:53.179Z,74.16
2019-03-10T14:49:56.880Z,75.95
2019-03-10T14:52:00.628Z,75.03
2019-03-10T14:54:04.423Z,74.49
2019-03-10T14:56:08.166Z,73.56
2019-03-10T14:58:11.929Z,70.82
2019-03-10T15:00:18.899Z,72.49
2019-03-10T15:02:22.765Z,75.82
2019-03-10T15:04:26.525Z,74.90
2019-03-10T15:06:30.304Z,76.42
2019-03-10T15:08:34.004Z,73.08
2019-03-10T15:10:37.786Z,75.24
2019-03-10T15:12:41.632Z,75.40
2019-03-10T15:14:45.352Z,73.18
2019-03-10T15:16:49.133Z,74.83
2019-03-10T15:18:52.836Z,74.13
2019-03-10T15:20:56.623Z,72.12
2019-03-10T15:23:00.363Z,75.22
2019-03-10T15:25:04.474Z,74.17
2019-03-10T15:27:08.231Z,74.98
2019-03-10T15:29:12.176Z,74.65
2019-03-10T15:31:16.080Z,74.68
2019-03-10T15:33:19.834Z,75.15
2019-03-10T15:35:23.643Z,75.75
2019-03-10T15:37:27.389Z,70.91
2019-03-10T15:39:31.128Z,72.38
2019-03-10T15:41:34.873Z,68.09
2019-03-10T15:43:38.628Z,71.13
2019-03-10T15:45:42.369Z,71.43
2019-03-10T15:47:46.183Z,72.05
2019-03-10T15:49:49.980Z,72.68
2019-03-10T15:51:53.813Z,70.47
2019-03-10T15:53:57.524Z,70.12
2019-03-10T15:56:01.245Z,72.53
2019-03-10T15:58:05.162Z,72.08
2019-03-10T16:00:12.913Z,70.69
2019-03-10T16:02:16.740Z,71.02
2019-03-10T16:04:22.067Z,71.88
2019-03-10T16:06:25.866Z,72.07
2019-03-10T16:08:29.654Z,71.26
2019-03-10T16:10:33.451Z,69.91
2019-03-10T16:12:37.376Z,69.55
2019-03-10T16:14:41.081Z,68.77
2019-03-10T16:16:44.867Z,67.61
2019-03-10T16:18:50.958Z,70.05
2019-03-10T16:20:54.111Z,69.29
2019-03-10T16:22:57.844Z,71.18
2019-03-10T16:25:01.564Z,67.79
2019-03-10T16:27:05.364Z,71.22
2019-03-10T16:29:09.138Z,72.48
2019-03-10T16:31:12.811Z,71.50
2019-03-10T16:33:16.560Z,70.10
2019-03-10T16:35:22.251Z,69.55
2019-03-10T16:37:25.874Z,71.19
2019-03-10T16:39:29.661Z,71.22
2019-03-10T16:41:33.373Z,67.59
2019-03-10T16:43:37.194Z,66.64
2019-03-10T16:45:40.916Z,65.37
2019-03-10T16:47:44.815Z,66.29
2019-03-10T16:49:48.545Z,66.42
2019-03-10T16:51:52.255Z,67.83
2019-03-10T16:53:56.181Z,67.83
2019-03-10T16:56:03.023Z,68.29
2019-03-10T16:58:05.435Z,63.67
2019-03-10T17:00:09.708Z,68.07
2019-03-10T17:02:13.419Z,66.88
2019-03-10T17:04:17.180Z,65.60
2019-03-10T17:06:20.929Z,65.83
2019-03-10T17:08:24.711Z,66.61
2019-03-10T17:10:28.586Z,69.96
2019-03-10T17:12:32.343Z,67.43
2019-03-10T17:14:36.119Z,67.57
2019-03-10T17:16:39.900Z,67.17
2019-03-10T17:18:43.656Z,62.72
2019-03-10T17:20:47.426Z,67.62
2019-03-10T17:22:51.324Z,67.72
2019-03-10T17:24:55.038Z,65.52
2019-03-10T17:26:58.966Z,66.78
2019-03-10T17:29:02.813Z,65.61
2019-03-10T17:31:06.608Z,67.18
2019-03-10T17:33:10.468Z,67.01
2019-03-10T17:35:14.545Z,64.05
2019-03-10T17:37:18.258Z,63.48
2019-03-10T17:39:22.167Z,64.68
2019-03-10T17:41:25.864Z,63.73
2019-03-10T17:43:29.706Z,64.08
2019-03-10T17:45:33.495Z,67.29
2019-03-10T17:47:37.221Z,63.17
2019-03-10T17:49:40.924Z,65.24
2019-03-10T17:51:44.632Z,65.83
2019-03-10T17:53:48.389Z,66.92
2019-03-10T17:55:52.245Z,67.93
2019-03-10T17:57:56.228Z,67.72
2019-03-10T17:59:59.941Z,67.05
2019-03-10T18:02:09.084Z,67.02
2019-03-10T18:04:09.144Z,66.10
2019-03-10T18:06:12.859Z,64.65
2019-03-10T18:08:16.689Z,66.35
2019-03-10T18:10:20.518Z,66.90
2019-03-10T18:12:24.231Z,68.24
2019-03-10T18:14:27.976Z,67.34
2019-03-10T18:16:33.483Z,66.99
2019-03-10T18:18:37.567Z,64.74
2019-03-10T18:20:41.285Z,65.10
2019-03-10T18:22:45.153Z,66.36
2019-03-10T18:24:48.899Z,68.25
2019-03-10T18:26:52.606Z,66.34
2019-03-10T18:28:56.404Z,68.13
2019-03-10T18:31:00.192Z,66.71
2019-03-10T18:33:03.988Z,66.29
2019-03-10T18:35:07.797Z,65.59
2019-03-10T18:37:11.495Z,62.55
2019-03-10T18:39:15.232Z,64.08
2019-03-10T18:41:18.936Z,65.78
2019-03-10T18:43:24.909Z,64.03
2019-03-10T18:45:28.143Z,61.97
2019-03-10T18:47:31.864Z,62.09
2019-03-10T18:49:35.614Z,61.53
2019-03-10T18:51:39.387Z,60.69
2019-03-10T18:53:43.149Z,61.85
2019-03-10T18:55:46.868Z,57.91
2019-03-10T18:57:50.791Z,55.10
2019-03-10T18:59:54.624Z,56.84
2019-03-10T19:01:58.310Z,56.77
2019-03-10T19:04:02.055Z,53.48
2019-03-10T19:06:05.913Z,55.29
2019-03-10T19:08:09.641Z,56.66
2019-03-10T19:10:13.888Z,55.83
2019-03-10T19:12:17.614Z,56.36
2019-03-10T19:14:21.355Z,56.04
2019-03-10T19:16:25.103Z,56.59
2019-03-10T19:18:28.818Z,55.47
2019-03-10T19:20:32.603Z,55.87
2019-03-10T19:22:36.395Z,55.82
2019-03-10T19:24:40.192Z,55.25
2019-03-10T19:26:43.904Z,54.64
2019-03-10T19:28:47.627Z,54.01
2019-03-10T19:30:51.332Z,53.95
2019-03-10T19:32:55.135Z,53.73
2019-03-10T19:34:58.874Z,53.73
2019-03-10T19:37:02.603Z,53.59
2019-03-10T19:39:07.428Z,53.06
2019-03-10T19:41:11.257Z,53.12
2019-03-10T19:43:14.967Z,52.35
2019-03-10T19:45:18.925Z,52.90
2019-03-10T19:47:22.634Z,55.49
2019-03-10T19:49:26.374Z,60.08
2019-03-10T19:51:30.186Z,63.79
2019-03-10T19:53:33.930Z,65.84
2019-03-10T19:55:37.659Z,67.49
2019-03-10T19:57:41.380Z,68.70
2019-03-10T19:59:45.195Z,69.10
2019-03-10T20:01:48.997Z,69.69
2019-03-10T20:03:52.833Z,70.40
2019-03-10T20:05:56.530Z,71.40
2019-03-10T20:08:00.236Z,72.06
2019-03-10T20:10:04.473Z,72.74
2019-03-10T20:12:09.032Z,73.20
2019-03-10T20:14:12.763Z,74.14
2019-03-10T20:16:16.476Z,74.20
2019-03-10T20:18:20.186Z,74.60
2019-03-10T20:20:24.026Z,74.33
2019-03-10T20:22:27.737Z,74.50
2019-03-10T20:24:31.557Z,74.02
2019-03-10T20:26:35.291Z,73.98
2019-03-10T20:28:39.135Z,73.70
2019-03-10T20:30:42.919Z,73.78
2019-03-10T20:32:46.663Z,73.87
2019-03-10T20:34:50.397Z,73.75
2019-03-10T20:36:54.085Z,73.62
2019-03-10T20:38:57.783Z,73.49
2019-03-10T20:41:01.654Z,73.50
2019-03-10T20:43:05.455Z,73.74
2019-03-10T20:45:09.411Z,73.54
2019-03-10T20:47:13.120Z,73.44
2019-03-10T20:49:16.847Z,73.62
2019-03-10T20:51:20.562Z,73.59
2019-03-10T20:53:24.266Z,73.58
2019-03-10T20:55:28.064Z,73.61
2019-03-10T20:57:31.776Z,73.51
2019-03-10T20:59:35.497Z,73.46
2019-03-10T21:01:39.354Z,73.51
2019-03-10T21:03:43.062Z,73.48
2019-03-10T21:05:46.815Z,73.66
2019-03-10T21:07:50.604Z,73.71
2019-03-10T21:09:54.443Z,74.04
2019-03-10T21:11:58.151Z,74.03
2019-03-10T21:14:01.845Z,74.23
2019-03-10T21:16:05.582Z,74.37
2019-03-10T21:18:09.300Z,73.98
2019-03-10T21:20:14.655Z,73.90
2019-03-10T21:22:20.876Z,73.70
2019-03-10T21:24:23.793Z,73.44
2019-03-10T21:26:27.640Z,73.42
2019-03-10T21:28:31.443Z,73.34
2019-03-10T21:30:35.376Z,73.20
2019-03-10T21:32:39.179Z,72.84
2019-03-10T21:34:42.916Z,72.69
2019-03-10T21:36:46.672Z,72.58
2019-03-10T21:38:50.531Z,72.44
2019-03-10T21:40:54.344Z,72.37
2019-03-10T21:42:58.060Z,72.07
2019-03-10T21:45:01.888Z,72.06
2019-03-10T21:47:05.720Z,72.11
2019-03-10T21:49:09.468Z,72.13
2019-03-10T21:51:13.255Z,71.89
2019-03-10T21:53:16.956Z,71.79
2019-03-10T21:55:20.840Z,71.68
2019-03-10T21:57:24.562Z,71.72
2019-03-10T21:59:28.319Z,71.95
2019-03-10T22:01:32.093Z,72.08
2019-03-10T22:03:35.937Z,72.19
2019-03-10T22:05:39.691Z,72.29
2019-03-10T22:07:43.486Z,72.42
2019-03-10T22:09:47.181Z,72.44
2019-03-10T22:11:51.029Z,72.32
2019-03-10T22:13:54.756Z,72.56
2019-03-10T22:15:58.697Z,72.51
2019-03-10T22:18:02.399Z,72.68
2019-03-10T22:20:06.787Z,72.79
2019-03-10T22:22:10.499Z,72.95
2019-03-10T22:24:14.199Z,73.00
2019-03-10T22:26:18.054Z,73.06
2019-03-10T22:28:21.846Z,73.22
2019-03-10T22:30:25.623Z,73.41
2019-03-10T22:32:29.298Z,73.58
2019-03-10T22:34:33.009Z,73.53
2019-03-10T22:36:36.846Z,73.51
2019-03-10T22:38:40.606Z,73.32
2019-03-10T22:40:44.455Z,73.17
2019-03-10T22:42:48.312Z,73.05
2019-03-10T22:44:52.034Z,72.73
2019-03-10T22:46:55.778Z,72.11
2019-03-10T22:48:59.478Z,71.65
2019-03-10T22:51:03.217Z,71.48
2019-03-10T22:53:06.939Z,70.69
2019-03-10T22:55:10.815Z,70.39
2019-03-10T22:57:14.637Z,69.97
2019-03-10T22:59:18.367Z,68.95
2019-03-10T23:01:22.272Z,68.47
2019-03-10T23:03:26.012Z,68.51
2019-03-10T23:05:29.738Z,68.09
2019-03-10T23:07:33.429Z,67.84
2019-03-10T23:09:37.136Z,67.86
2019-03-10T23:11:40.956Z,67.96
2019-03-10T23:13:44.666Z,68.05
2019-03-10T23:15:48.484Z,68.06
2019-03-10T23:17:52.172Z,68.24
2019-03-10T23:19:55.881Z,68.17
2019-03-10T23:21:59.690Z,68.19
2019-03-10T23:24:03.417Z,68.18
2019-03-10T23:26:07.132Z,68.17
2019-03-10T23:28:10.847Z,68.12
2019-03-10T23:30:14.819Z,67.90
2019-03-10T23:32:18.624Z,67.55
2019-03-10T23:34:22.338Z,67.19
2019-03-10T23:36:26.066Z,67.05
2019-03-10T23:38:29.772Z,67.08
2019-03-10T23:40:33.485Z,67.21
2019-03-10T23:42:37.283Z,67.22
2019-03-10T23:44:40.986Z,67.39
2019-03-10T23:46:44.777Z,67.57
2019-03-10T23:48:48.487Z,67.63
2019-03-10T23:50:52.274Z,67.24
2019-03-10T23:52:55.991Z,67.16
2019-03-10T23:54:59.692Z,66.88
2019-03-10T23:57:03.497Z,66.76
2019-03-10T23:59:07.198Z,66.58
